Terminal Aerodrome Forecast
Issued by NWS

Home | Current Version | Previous Version | Text Only | Print | Product List | Glossary On
Versions: 1 2 3 4 5 6 7 8 9 10 11 12 13 14 15 16 17 18 19
800
FTUS43 KJKL 281845 AAA
TAFSJS
TAF AMD
KSJS 281845Z 2819/2918 29004G14KT P6SM VCTS BKN040CB BKN045 BKN060
     FM290000 27005KT P6SM VCSH SCT050 SCT200
     FM290100 27005KT P6SM SCT150
     FM290800 00000KT 4SM BR SCT200=

USA.gov is the U.S. government's official web portal to all federal, state and local government web resources and services.